Albannach — ALNNACH — position and weather

sailwx.info

Track history (hours):
 
Tides and Currents Weather Stations Pressure Air Temp Water Temp Dewpoint Dewpoint Depression Visibility Wind Speed Wind Dir Waves Ship Positions

Albannach

Last reported at 2018-Apr-10 22:26 UTC. Time now 2018-Apr-23 03:52 UTC.
Position N 49°17' W 123°32'.
Warning: this ship's position is 12 days out of date.

Length 16 m.

Type: Pleasure craft. MMSI: 316018798.

Date/timePositionNaut miles runAvg speedWind from/ knotsBaromVisibWave heightAir tempDewpointWater temp
2018-Apr-10 22:26N 49°17' W 123°32'3 7.2
2018-Apr-10 22:00N 49°18' W 123°27'4 8.0
2018-Apr-10 21:30N 49°19' W 123°21'4 7.9
2018-Apr-10 20:58N 49°19' W 123°15'4 8.1
2018-Apr-10 20:29N 49°19' W 123°09'2 1.3
2018-Apr-10 19:10N 49°18' W 123°08'0 1.4
2018-Apr-10 18:59N 49°18' W 123°07'4 7.6
2018-Apr-10 18:28N 49°18' W 123°01'4 7.4
2018-Apr-10 17:57N 49°18' W 122°55'1 3.2
2018-Apr-10 17:30N 49°17' W 122°53'0 0.0
2018-Apr-10 16:48N 49°17' W 122°53'0 0.1
2018-Apr-10 16:22N 49°18' W 122°53'2 6.2
2018-Apr-10 15:59N 49°18' W 122°57'4 7.3
2018-Apr-10 15:30N 49°18' W 123°02'3 7.0
2018-Apr-10 15:00N 49°18' W 123°07'0 0.3
2018-Apr-10 14:30N 49°17' W 123°08'0 0.0
2018-Apr-10 14:00N 49°17' W 123°08'0 0.0
2018-Apr-10 12:18N 49°17' W 123°08'0 0.0
2018-Apr-10 12:00N 49°17' W 123°08'0 0.0
2018-Apr-10 10:21N 49°17' W 123°08'0 0.0
2018-Apr-10 09:57N 49°17' W 123°08'0 0.0
2018-Apr-10 08:36N 49°17' W 123°08'0 0.0
2018-Apr-10 08:21N 49°17' W 123°08'0 0.0
2018-Apr-10 07:54N 49°17' W 123°08'0 0.0
2018-Apr-10 00:18N 49°17' W 123°08'0 0.0
2018-Apr-09 23:49N 49°17' W 123°08'0 0.0
2018-Apr-09 23:27N 49°17' W 123°08'0 0.3
2018-Apr-09 22:57N 49°18' W 123°07'2 4.2
2018-Apr-09 22:30N 49°19' W 123°09'4 8.0
2018-Apr-09 21:57N 49°19' W 123°16'4 8.3
2018-Apr-09 21:28N 49°20' W 123°22'  
Track history (hours):
 
Tides and Currents Weather Stations Pressure Air Temp Water Temp Dewpoint Dewpoint Depression Visibility Wind Speed Wind Dir Waves Ship Positions

Albannach

Last reported at 2018-Apr-10 22:26 UTC. Time now 2018-Apr-23 03:52 UTC.
Position N 49°17' W 123°32'.
Warning: this ship's position is 12 days out of date.

Length 16 m.

Type: Pleasure craft. MMSI: 316018798.

Date/timePositionNaut miles runAvg speedWind from/ knotsBaromVisibWave heightAir tempDewpointWater temp
2018-Apr-10 22:26N 49°17' W 123°32'3 7.2
2018-Apr-10 22:00N 49°18' W 123°27'4 8.0
2018-Apr-10 21:30N 49°19' W 123°21'4 7.9
2018-Apr-10 20:58N 49°19' W 123°15'4 8.1
2018-Apr-10 20:29N 49°19' W 123°09'2 1.3
2018-Apr-10 19:10N 49°18' W 123°08'0 1.4
2018-Apr-10 18:59N 49°18' W 123°07'4 7.6
2018-Apr-10 18:28N 49°18' W 123°01'4 7.4
2018-Apr-10 17:57N 49°18' W 122°55'1 3.2
2018-Apr-10 17:30N 49°17' W 122°53'0 0.0
2018-Apr-10 16:48N 49°17' W 122°53'0 0.1
2018-Apr-10 16:22N 49°18' W 122°53'2 6.2
2018-Apr-10 15:59N 49°18' W 122°57'4 7.3
2018-Apr-10 15:30N 49°18' W 123°02'3 7.0
2018-Apr-10 15:00N 49°18' W 123°07'0 0.3
2018-Apr-10 14:30N 49°17' W 123°08'0 0.0
2018-Apr-10 14:00N 49°17' W 123°08'0 0.0
2018-Apr-10 12:18N 49°17' W 123°08'0 0.0
2018-Apr-10 12:00N 49°17' W 123°08'0 0.0
2018-Apr-10 10:21N 49°17' W 123°08'0 0.0
2018-Apr-10 09:57N 49°17' W 123°08'0 0.0
2018-Apr-10 08:36N 49°17' W 123°08'0 0.0
2018-Apr-10 08:21N 49°17' W 123°08'0 0.0
2018-Apr-10 07:54N 49°17' W 123°08'0 0.0
2018-Apr-10 00:18N 49°17' W 123°08'0 0.0
2018-Apr-09 23:49N 49°17' W 123°08'0 0.0
2018-Apr-09 23:27N 49°17' W 123°08'0 0.3
2018-Apr-09 22:57N 49°18' W 123°07'2 4.2
2018-Apr-09 22:30N 49°19' W 123°09'4 8.0
2018-Apr-09 21:57N 49°19' W 123°16'4 8.3
2018-Apr-09 21:28N 49°20' W 123°22'  

Dump ship's entire track history